sensor_id;sensor_type;location;lat;lon;timestamp;temperature;humidity
60287;DHT22;46141;52.382;5.270;2023-03-11T00:00:29;19.80;57.60
60287;DHT22;46141;52.382;5.270;2023-03-11T00:02:57;19.80;57.80
60287;DHT22;46141;52.382;5.270;2023-03-11T00:05:37;19.80;57.80
60287;DHT22;46141;52.382;5.270;2023-03-11T00:08:05;19.70;57.70
60287;DHT22;46141;52.382;5.270;2023-03-11T00:10:37;19.70;57.70
60287;DHT22;46141;52.382;5.270;2023-03-11T00:13:04;19.80;57.70
60287;DHT22;46141;52.382;5.270;2023-03-11T00:15:31;19.70;57.70
60287;DHT22;46141;52.382;5.270;2023-03-11T00:17:57;19.70;57.70
60287;DHT22;46141;52.382;5.270;2023-03-11T00:20:32;19.60;57.80
60287;DHT22;46141;52.382;5.270;2023-03-11T00:22:58;19.60;57.80
60287;DHT22;46141;52.382;5.270;2023-03-11T00:25:26;19.60;57.90
60287;DHT22;46141;52.382;5.270;2023-03-11T00:27:52;19.60;57.90
60287;DHT22;46141;52.382;5.270;2023-03-11T00:30:19;19.60;57.90
60287;DHT22;46141;52.382;5.270;2023-03-11T00:32:47;19.60;57.90
60287;DHT22;46141;52.382;5.270;2023-03-11T00:35:17;19.50;57.80
60287;DHT22;46141;52.382;5.270;2023-03-11T00:37:45;19.50;57.80
60287;DHT22;46141;52.382;5.270;2023-03-11T00:40:17;19.50;58.00
60287;DHT22;46141;52.382;5.270;2023-03-11T00:42:44;19.50;58.00
60287;DHT22;46141;52.382;5.270;2023-03-11T00:45:10;19.50;58.00
60287;DHT22;46141;52.382;5.270;2023-03-11T00:47:36;19.40;58.00
60287;DHT22;46141;52.382;5.270;2023-03-11T00:50:02;19.40;58.00
60287;DHT22;46141;52.382;5.270;2023-03-11T00:52:28;19.40;58.10
60287;DHT22;46141;52.382;5.270;2023-03-11T00:54:54;19.40;58.10
60287;DHT22;46141;52.382;5.270;2023-03-11T00:57:20;19.40;58.10
60287;DHT22;46141;52.382;5.270;2023-03-11T00:59:46;19.40;58.20
60287;DHT22;46141;52.382;5.270;2023-03-11T01:02:12;19.40;58.10
60287;DHT22;46141;52.382;5.270;2023-03-11T01:04:38;19.30;58.20
60287;DHT22;46141;52.382;5.270;2023-03-11T01:07:04;19.30;58.20
60287;DHT22;46141;52.382;5.270;2023-03-11T01:09:29;19.30;58.20
60287;DHT22;46141;52.382;5.270;2023-03-11T01:11:55;19.30;58.10
60287;DHT22;46141;52.382;5.270;2023-03-11T01:14:21;19.30;58.20
60287;DHT22;46141;52.382;5.270;2023-03-11T01:16:47;19.30;58.20
60287;DHT22;46141;52.382;5.270;2023-03-11T01:19:13;19.20;58.90
60287;DHT22;46141;52.382;5.270;2023-03-11T01:21:39;19.20;58.30
60287;DHT22;46141;52.382;5.270;2023-03-11T01:24:04;19.20;58.20
60287;DHT22;46141;52.382;5.270;2023-03-11T01:26:30;19.20;58.30
60287;DHT22;46141;52.382;5.270;2023-03-11T01:28:56;19.20;58.30
60287;DHT22;46141;52.382;5.270;2023-03-11T01:31:21;19.20;58.30
60287;DHT22;46141;52.382;5.270;2023-03-11T01:33:47;19.20;58.30
60287;DHT22;46141;52.382;5.270;2023-03-11T01:36:12;19.10;58.30
60287;DHT22;46141;52.382;5.270;2023-03-11T01:38:38;19.10;58.20
60287;DHT22;46141;52.382;5.270;2023-03-11T01:41:05;19.10;58.20
60287;DHT22;46141;52.382;5.270;2023-03-11T01:46:16;19.10;58.30
60287;DHT22;46141;52.382;5.270;2023-03-11T01:48:57;19.10;58.30
60287;DHT22;46141;52.382;5.270;2023-03-11T01:51:43;19.00;58.30
60287;DHT22;46141;52.382;5.270;2023-03-11T01:54:18;19.00;58.20
60287;DHT22;46141;52.382;5.270;2023-03-11T01:56:46;19.00;58.20
60287;DHT22;46141;52.382;5.270;2023-03-11T01:59:17;19.00;58.20
60287;DHT22;46141;52.382;5.270;2023-03-11T02:02:13;19.00;58.30
60287;DHT22;46141;52.382;5.270;2023-03-11T02:04:41;19.00;58.30
60287;DHT22;46141;52.382;5.270;2023-03-11T02:07:08;19.00;58.40
60287;DHT22;46141;52.382;5.270;2023-03-11T02:09:34;19.00;58.40
60287;DHT22;46141;52.382;5.270;2023-03-11T02:12:02;18.90;58.30
60287;DHT22;46141;52.382;5.270;2023-03-11T02:14:30;18.90;58.30
60287;DHT22;46141;52.382;5.270;2023-03-11T02:16:57;18.90;58.40
60287;DHT22;46141;52.382;5.270;2023-03-11T02:20:04;18.90;58.30
60287;DHT22;46141;52.382;5.270;2023-03-11T02:22:27;18.80;58.20
60287;DHT22;46141;52.382;5.270;2023-03-11T02:27:53;18.80;58.40
60287;DHT22;46141;52.382;5.270;2023-03-11T02:30:22;18.80;58.30
60287;DHT22;46141;52.382;5.270;2023-03-11T02:32:49;18.80;58.40
60287;DHT22;46141;52.382;5.270;2023-03-11T02:35:16;18.80;58.30
60287;DHT22;46141;52.382;5.270;2023-03-11T02:37:49;18.70;58.30
60287;DHT22;46141;52.382;5.270;2023-03-11T02:42:49;18.80;58.40
60287;DHT22;46141;52.382;5.270;2023-03-11T02:45:17;18.70;58.30
60287;DHT22;46141;52.382;5.270;2023-03-11T02:47:44;18.70;58.30
60287;DHT22;46141;52.382;5.270;2023-03-11T02:50:12;18.70;58.60
60287;DHT22;46141;52.382;5.270;2023-03-11T02:52:38;18.60;58.50
60287;DHT22;46141;52.382;5.270;2023-03-11T02:55:05;18.60;58.60
60287;DHT22;46141;52.382;5.270;2023-03-11T02:57:31;18.60;58.50
60287;DHT22;46141;52.382;5.270;2023-03-11T02:59:57;18.60;58.60
60287;DHT22;46141;52.382;5.270;2023-03-11T03:02:24;18.60;58.50
60287;DHT22;46141;52.382;5.270;2023-03-11T03:04:50;18.60;58.50
60287;DHT22;46141;52.382;5.270;2023-03-11T03:07:15;18.50;58.40
60287;DHT22;46141;52.382;5.270;2023-03-11T03:09:41;18.50;58.40
60287;DHT22;46141;52.382;5.270;2023-03-11T03:12:06;18.50;58.40
60287;DHT22;46141;52.382;5.270;2023-03-11T03:14:32;18.50;58.40
60287;DHT22;46141;52.382;5.270;2023-03-11T03:16:58;18.50;58.40
60287;DHT22;46141;52.382;5.270;2023-03-11T03:19:24;18.50;58.40
60287;DHT22;46141;52.382;5.270;2023-03-11T03:21:49;18.40;58.30
60287;DHT22;46141;52.382;5.270;2023-03-11T03:24:15;18.40;58.20
60287;DHT22;46141;52.382;5.270;2023-03-11T03:26:41;18.40;58.30
60287;DHT22;46141;52.382;5.270;2023-03-11T03:29:07;18.40;58.20
60287;DHT22;46141;52.382;5.270;2023-03-11T03:31:32;18.30;58.20
60287;DHT22;46141;52.382;5.270;2023-03-11T03:33:58;18.30;58.20
60287;DHT22;46141;52.382;5.270;2023-03-11T03:36:24;18.30;58.10
60287;DHT22;46141;52.382;5.270;2023-03-11T03:38:54;18.30;58.10
60287;DHT22;46141;52.382;5.270;2023-03-11T03:41:21;18.30;58.20
60287;DHT22;46141;52.382;5.270;2023-03-11T03:43:46;18.30;58.20
60287;DHT22;46141;52.382;5.270;2023-03-11T03:46:12;18.30;58.10
60287;DHT22;46141;52.382;5.270;2023-03-11T03:48:38;18.20;58.10
60287;DHT22;46141;52.382;5.270;2023-03-11T03:51:05;18.20;58.10
60287;DHT22;46141;52.382;5.270;2023-03-11T03:53:33;18.20;58.10
60287;DHT22;46141;52.382;5.270;2023-03-11T03:56:10;18.20;58.10
60287;DHT22;46141;52.382;5.270;2023-03-11T03:58:36;18.10;58.10
60287;DHT22;46141;52.382;5.270;2023-03-11T04:01:04;18.10;58.10
60287;DHT22;46141;52.382;5.270;2023-03-11T04:03:30;18.10;58.10
60287;DHT22;46141;52.382;5.270;2023-03-11T04:08:43;18.10;58.10
60287;DHT22;46141;52.382;5.270;2023-03-11T04:11:09;18.00;58.10
60287;DHT22;46141;52.382;5.270;2023-03-11T04:13:35;18.00;58.10
60287;DHT22;46141;52.382;5.270;2023-03-11T04:16:06;18.00;58.10
60287;DHT22;46141;52.382;5.270;2023-03-11T04:18:33;18.00;58.00
60287;DHT22;46141;52.382;5.270;2023-03-11T04:20:59;18.00;58.10
60287;DHT22;46141;52.382;5.270;2023-03-11T04:23:28;18.00;58.00
60287;DHT22;46141;52.382;5.270;2023-03-11T04:25:54;18.00;58.00
60287;DHT22;46141;52.382;5.270;2023-03-11T04:28:19;18.00;58.00
60287;DHT22;46141;52.382;5.270;2023-03-11T04:30:45;18.00;58.00
60287;DHT22;46141;52.382;5.270;2023-03-11T04:33:11;17.90;57.90
60287;DHT22;46141;52.382;5.270;2023-03-11T04:35:38;17.90;58.00
60287;DHT22;46141;52.382;5.270;2023-03-11T04:38:04;17.90;57.90
60287;DHT22;46141;52.382;5.270;2023-03-11T04:40:30;17.90;58.00
60287;DHT22;46141;52.382;5.270;2023-03-11T04:42:56;17.80;57.90
60287;DHT22;46141;52.382;5.270;2023-03-11T04:45:21;17.80;57.90
60287;DHT22;46141;52.382;5.270;2023-03-11T04:47:48;17.80;57.90
60287;DHT22;46141;52.382;5.270;2023-03-11T04:50:14;17.80;57.90
60287;DHT22;46141;52.382;5.270;2023-03-11T04:52:40;17.80;57.90
60287;DHT22;46141;52.382;5.270;2023-03-11T04:55:06;17.80;57.80
60287;DHT22;46141;52.382;5.270;2023-03-11T04:57:32;17.80;57.80
60287;DHT22;46141;52.382;5.270;2023-03-11T04:59:58;17.80;57.80
60287;DHT22;46141;52.382;5.270;2023-03-11T05:02:23;17.70;57.80
60287;DHT22;46141;52.382;5.270;2023-03-11T05:04:49;17.80;57.80
60287;DHT22;46141;52.382;5.270;2023-03-11T05:07:15;17.70;57.80
60287;DHT22;46141;52.382;5.270;2023-03-11T05:09:41;17.70;57.80
60287;DHT22;46141;52.382;5.270;2023-03-11T05:12:08;17.70;57.80
60287;DHT22;46141;52.382;5.270;2023-03-11T05:14:35;17.70;57.80
60287;DHT22;46141;52.382;5.270;2023-03-11T05:17:00;17.70;57.80
60287;DHT22;46141;52.382;5.270;2023-03-11T05:19:26;17.70;57.70
60287;DHT22;46141;52.382;5.270;2023-03-11T05:22:02;17.70;57.70
60287;DHT22;46141;52.382;5.270;2023-03-11T05:24:29;17.70;57.60
60287;DHT22;46141;52.382;5.270;2023-03-11T05:26:55;17.70;57.60
60287;DHT22;46141;52.382;5.270;2023-03-11T05:29:21;17.70;57.60
60287;DHT22;46141;52.382;5.270;2023-03-11T05:31:47;17.60;57.60
60287;DHT22;46141;52.382;5.270;2023-03-11T05:34:14;17.70;57.60
60287;DHT22;46141;52.382;5.270;2023-03-11T05:36:40;17.70;57.60
60287;DHT22;46141;52.382;5.270;2023-03-11T05:39:06;17.60;57.50
60287;DHT22;46141;52.382;5.270;2023-03-11T05:41:31;17.60;57.50
60287;DHT22;46141;52.382;5.270;2023-03-11T05:43:57;17.60;57.50
60287;DHT22;46141;52.382;5.270;2023-03-11T05:46:23;17.60;57.50
60287;DHT22;46141;52.382;5.270;2023-03-11T05:48:48;17.60;57.50
60287;DHT22;46141;52.382;5.270;2023-03-11T05:51:14;17.60;57.50
60287;DHT22;46141;52.382;5.270;2023-03-11T05:53:47;17.60;57.50
60287;DHT22;46141;52.382;5.270;2023-03-11T05:56:18;17.60;57.50
60287;DHT22;46141;52.382;5.270;2023-03-11T05:58:44;17.60;57.50
60287;DHT22;46141;52.382;5.270;2023-03-11T06:01:12;17.60;57.40
60287;DHT22;46141;52.382;5.270;2023-03-11T06:03:39;17.60;57.40
60287;DHT22;46141;52.382;5.270;2023-03-11T06:06:08;17.50;57.30
60287;DHT22;46141;52.382;5.270;2023-03-11T06:08:34;17.60;57.40
60287;DHT22;46141;52.382;5.270;2023-03-11T06:11:07;17.60;57.30
60287;DHT22;46141;52.382;5.270;2023-03-11T06:13:33;17.50;57.30
60287;DHT22;46141;52.382;5.270;2023-03-11T06:16:00;17.50;57.30
60287;DHT22;46141;52.382;5.270;2023-03-11T06:18:25;17.50;57.30
60287;DHT22;46141;52.382;5.270;2023-03-11T06:20:52;17.50;57.30
60287;DHT22;46141;52.382;5.270;2023-03-11T06:23:18;17.50;57.90
60287;DHT22;46141;52.382;5.270;2023-03-11T06:25:53;17.50;57.20
60287;DHT22;46141;52.382;5.270;2023-03-11T06:28:19;17.50;57.30
60287;DHT22;46141;52.382;5.270;2023-03-11T06:30:44;17.50;57.20
60287;DHT22;46141;52.382;5.270;2023-03-11T06:33:10;17.50;57.20
60287;DHT22;46141;52.382;5.270;2023-03-11T06:35:36;17.50;57.20
60287;DHT22;46141;52.382;5.270;2023-03-11T06:38:01;17.50;57.10
60287;DHT22;46141;52.382;5.270;2023-03-11T06:40:27;17.50;57.10
60287;DHT22;46141;52.382;5.270;2023-03-11T06:42:53;17.50;57.20
60287;DHT22;46141;52.382;5.270;2023-03-11T06:45:18;17.50;57.20
60287;DHT22;46141;52.382;5.270;2023-03-11T06:47:44;17.50;57.20
60287;DHT22;46141;52.382;5.270;2023-03-11T06:50:10;17.50;57.10
60287;DHT22;46141;52.382;5.270;2023-03-11T06:52:35;17.50;57.10
60287;DHT22;46141;52.382;5.270;2023-03-11T06:55:01;17.50;57.10
60287;DHT22;46141;52.382;5.270;2023-03-11T06:57:28;17.50;57.10
60287;DHT22;46141;52.382;5.270;2023-03-11T06:59:55;17.50;57.10
60287;DHT22;46141;52.382;5.270;2023-03-11T07:02:21;17.50;57.10
60287;DHT22;46141;52.382;5.270;2023-03-11T07:04:50;17.50;57.10
60287;DHT22;46141;52.382;5.270;2023-03-11T07:07:16;17.50;57.10
60287;DHT22;46141;52.382;5.270;2023-03-11T07:09:42;17.50;57.10
60287;DHT22;46141;52.382;5.270;2023-03-11T07:12:08;17.50;57.10
60287;DHT22;46141;52.382;5.270;2023-03-11T07:14:34;17.50;57.00
60287;DHT22;46141;52.382;5.270;2023-03-11T07:16:59;17.50;57.50
60287;DHT22;46141;52.382;5.270;2023-03-11T07:19:25;17.50;57.00
60287;DHT22;46141;52.382;5.270;2023-03-11T07:21:51;17.50;57.00
60287;DHT22;46141;52.382;5.270;2023-03-11T07:24:16;17.60;57.00
60287;DHT22;46141;52.382;5.270;2023-03-11T07:26:42;17.60;57.10
60287;DHT22;46141;52.382;5.270;2023-03-11T07:29:08;17.60;57.50
60287;DHT22;46141;52.382;5.270;2023-03-11T07:31:35;17.60;57.00
60287;DHT22;46141;52.382;5.270;2023-03-11T07:34:04;17.60;56.90
60287;DHT22;46141;52.382;5.270;2023-03-11T07:36:31;17.50;56.70
60287;DHT22;46141;52.382;5.270;2023-03-11T07:38:59;17.60;56.70
60287;DHT22;46141;52.382;5.270;2023-03-11T07:41:27;17.60;56.60
60287;DHT22;46141;52.382;5.270;2023-03-11T07:43:55;17.60;56.80
60287;DHT22;46141;52.382;5.270;2023-03-11T07:46:22;17.60;56.90
60287;DHT22;46141;52.382;5.270;2023-03-11T07:48:49;17.60;56.80
60287;DHT22;46141;52.382;5.270;2023-03-11T07:51:17;17.70;56.80
60287;DHT22;46141;52.382;5.270;2023-03-11T07:53:44;17.70;56.80
60287;DHT22;46141;52.382;5.270;2023-03-11T07:56:12;17.70;56.80
60287;DHT22;46141;52.382;5.270;2023-03-11T07:58:39;17.70;56.80
60287;DHT22;46141;52.382;5.270;2023-03-11T08:01:05;17.70;57.10
60287;DHT22;46141;52.382;5.270;2023-03-11T08:03:35;17.80;57.30
60287;DHT22;46141;52.382;5.270;2023-03-11T08:06:01;17.80;57.30
60287;DHT22;46141;52.382;5.270;2023-03-11T08:08:27;17.70;58.30
60287;DHT22;46141;52.382;5.270;2023-03-11T08:10:53;17.70;58.00
60287;DHT22;46141;52.382;5.270;2023-03-11T08:13:19;17.70;58.40
60287;DHT22;46141;52.382;5.270;2023-03-11T08:15:45;17.80;59.00
60287;DHT22;46141;52.382;5.270;2023-03-11T08:18:11;17.90;58.90
60287;DHT22;46141;52.382;5.270;2023-03-11T08:20:37;18.00;58.70
60287;DHT22;46141;52.382;5.270;2023-03-11T08:23:03;18.10;58.40
60287;DHT22;46141;52.382;5.270;2023-03-11T08:25:28;18.30;58.30
60287;DHT22;46141;52.382;5.270;2023-03-11T08:27:54;18.40;58.10
60287;DHT22;46141;52.382;5.270;2023-03-11T08:30:20;18.50;57.90
60287;DHT22;46141;52.382;5.270;2023-03-11T08:32:47;18.60;57.70
60287;DHT22;46141;52.382;5.270;2023-03-11T08:35:14;18.70;57.60
60287;DHT22;46141;52.382;5.270;2023-03-11T08:37:39;18.90;57.50
60287;DHT22;46141;52.382;5.270;2023-03-11T08:40:05;19.00;57.40
60287;DHT22;46141;52.382;5.270;2023-03-11T08:42:33;19.10;57.40
60287;DHT22;46141;52.382;5.270;2023-03-11T08:44:58;19.20;57.30
60287;DHT22;46141;52.382;5.270;2023-03-11T08:47:24;19.30;57.30
60287;DHT22;46141;52.382;5.270;2023-03-11T08:49:50;19.40;57.10
60287;DHT22;46141;52.382;5.270;2023-03-11T08:52:15;19.50;57.00
60287;DHT22;46141;52.382;5.270;2023-03-11T08:54:41;19.60;57.00
60287;DHT22;46141;52.382;5.270;2023-03-11T08:57:07;19.60;56.90
60287;DHT22;46141;52.382;5.270;2023-03-11T08:59:33;19.80;56.90
60287;DHT22;46141;52.382;5.270;2023-03-11T09:01:58;19.80;56.80
60287;DHT22;46141;52.382;5.270;2023-03-11T09:04:24;19.90;56.70
60287;DHT22;46141;52.382;5.270;2023-03-11T09:06:50;19.90;56.80
60287;DHT22;46141;52.382;5.270;2023-03-11T09:09:16;20.00;56.70
60287;DHT22;46141;52.382;5.270;2023-03-11T09:11:45;20.10;56.70
60287;DHT22;46141;52.382;5.270;2023-03-11T09:14:11;20.20;56.70
60287;DHT22;46141;52.382;5.270;2023-03-11T09:16:37;20.30;56.50
60287;DHT22;46141;52.382;5.270;2023-03-11T09:19:02;20.40;56.50
60287;DHT22;46141;52.382;5.270;2023-03-11T09:21:34;20.40;56.20
60287;DHT22;46141;52.382;5.270;2023-03-11T09:24:01;20.50;56.00
60287;DHT22;46141;52.382;5.270;2023-03-11T09:26:29;20.70;55.70
60287;DHT22;46141;52.382;5.270;2023-03-11T09:28:55;20.80;55.50
60287;DHT22;46141;52.382;5.270;2023-03-11T09:31:21;20.90;55.40
60287;DHT22;46141;52.382;5.270;2023-03-11T09:33:47;20.90;55.30
60287;DHT22;46141;52.382;5.270;2023-03-11T09:36:16;21.00;55.30
60287;DHT22;46141;52.382;5.270;2023-03-11T09:38:42;21.10;55.30
60287;DHT22;46141;52.382;5.270;2023-03-11T09:44:13;21.10;55.20
60287;DHT22;46141;52.382;5.270;2023-03-11T09:47:08;21.20;55.20
60287;DHT22;46141;52.382;5.270;2023-03-11T09:58:10;21.20;55.60
60287;DHT22;46141;52.382;5.270;2023-03-11T10:00:37;21.20;55.70
60287;DHT22;46141;52.382;5.270;2023-03-11T10:03:13;21.30;55.70
60287;DHT22;46141;52.382;5.270;2023-03-11T10:05:41;21.10;55.90
60287;DHT22;46141;52.382;5.270;2023-03-11T10:08:22;21.20;55.90
60287;DHT22;46141;52.382;5.270;2023-03-11T10:11:00;21.20;56.00
60287;DHT22;46141;52.382;5.270;2023-03-11T10:13:48;21.10;56.10
60287;DHT22;46141;52.382;5.270;2023-03-11T10:19:14;21.10;57.10
60287;DHT22;46141;52.382;5.270;2023-03-11T10:30:39;20.90;57.60
60287;DHT22;46141;52.382;5.270;2023-03-11T10:35:54;20.90;57.60
60287;DHT22;46141;52.382;5.270;2023-03-11T10:40:55;21.00;57.70
60287;DHT22;46141;52.382;5.270;2023-03-11T10:43:30;21.00;57.80
60287;DHT22;46141;52.382;5.270;2023-03-11T10:45:58;20.90;57.80
60287;DHT22;46141;52.382;5.270;2023-03-11T10:48:24;20.90;57.80
60287;DHT22;46141;52.382;5.270;2023-03-11T10:51:00;20.90;57.90
60287;DHT22;46141;52.382;5.270;2023-03-11T10:53:26;21.00;58.00
60287;DHT22;46141;52.382;5.270;2023-03-11T10:55:54;20.90;57.90
60287;DHT22;46141;52.382;5.270;2023-03-11T10:58:28;21.00;57.80
60287;DHT22;46141;52.382;5.270;2023-03-11T11:01:15;21.00;57.60
60287;DHT22;46141;52.382;5.270;2023-03-11T11:03:45;21.00;57.30
60287;DHT22;46141;52.382;5.270;2023-03-11T11:08:48;21.00;57.00
60287;DHT22;46141;52.382;5.270;2023-03-11T11:11:22;21.00;56.90
60287;DHT22;46141;52.382;5.270;2023-03-11T11:13:59;21.10;57.00
60287;DHT22;46141;52.382;5.270;2023-03-11T11:16:26;21.10;57.10
60287;DHT22;46141;52.382;5.270;2023-03-11T11:19:03;21.10;57.10
60287;DHT22;46141;52.382;5.270;2023-03-11T11:21:49;21.10;57.20
60287;DHT22;46141;52.382;5.270;2023-03-11T11:24:25;21.00;57.30
60287;DHT22;46141;52.382;5.270;2023-03-11T11:29:38;21.10;57.10
60287;DHT22;46141;52.382;5.270;2023-03-11T11:32:24;21.00;56.80
60287;DHT22;46141;52.382;5.270;2023-03-11T11:37:25;21.00;56.50
60287;DHT22;46141;52.382;5.270;2023-03-11T11:40:33;21.00;56.30
60287;DHT22;46141;52.382;5.270;2023-03-11T11:43:08;21.00;55.60
60287;DHT22;46141;52.382;5.270;2023-03-11T11:45:56;20.90;52.60
60287;DHT22;46141;52.382;5.270;2023-03-11T11:51:19;20.90;55.50
60287;DHT22;46141;52.382;5.270;2023-03-11T11:53:56;21.00;55.50
60287;DHT22;46141;52.382;5.270;2023-03-11T11:56:24;20.90;55.20
60287;DHT22;46141;52.382;5.270;2023-03-11T11:58:50;21.10;55.00
60287;DHT22;46141;52.382;5.270;2023-03-11T12:01:39;21.00;55.40
60287;DHT22;46141;52.382;5.270;2023-03-11T12:04:28;21.00;55.30
60287;DHT22;46141;52.382;5.270;2023-03-11T12:10:27;21.10;55.40
60287;DHT22;46141;52.382;5.270;2023-03-11T12:15:42;21.20;54.90
60287;DHT22;46141;52.382;5.270;2023-03-11T12:18:31;21.30;55.20
60287;DHT22;46141;52.382;5.270;2023-03-11T12:21:11;21.40;55.30
60287;DHT22;46141;52.382;5.270;2023-03-11T12:26:21;21.50;55.50
60287;DHT22;46141;52.382;5.270;2023-03-11T12:29:02;21.50;55.50
60287;DHT22;46141;52.382;5.270;2023-03-11T12:31:37;21.50;55.60
60287;DHT22;46141;52.382;5.270;2023-03-11T12:34:08;21.60;55.40
60287;DHT22;46141;52.382;5.270;2023-03-11T12:36:44;21.60;55.60
60287;DHT22;46141;52.382;5.270;2023-03-11T12:39:26;21.70;55.70
60287;DHT22;46141;52.382;5.270;2023-03-11T12:42:22;21.70;55.70
60287;DHT22;46141;52.382;5.270;2023-03-11T12:44:50;21.80;55.90
60287;DHT22;46141;52.382;5.270;2023-03-11T12:47:24;21.90;56.00
60287;DHT22;46141;52.382;5.270;2023-03-11T12:53:00;22.10;56.30
60287;DHT22;46141;52.382;5.270;2023-03-11T12:55:31;22.10;56.30
60287;DHT22;46141;52.382;5.270;2023-03-11T12:58:22;22.20;56.50
60287;DHT22;46141;52.382;5.270;2023-03-11T13:01:11;22.20;56.40
60287;DHT22;46141;52.382;5.270;2023-03-11T13:03:47;22.20;56.50
60287;DHT22;46141;52.382;5.270;2023-03-11T13:09:13;22.40;56.40
60287;DHT22;46141;52.382;5.270;2023-03-11T13:16:47;22.00;54.60
60287;DHT22;46141;52.382;5.270;2023-03-11T13:21:56;21.90;54.10
60287;DHT22;46141;52.382;5.270;2023-03-11T13:40:32;21.80;53.90
60287;DHT22;46141;52.382;5.270;2023-03-11T13:43:24;21.70;53.60
60287;DHT22;46141;52.382;5.270;2023-03-11T13:46:27;21.60;53.60
60287;DHT22;46141;52.382;5.270;2023-03-11T13:49:05;21.60;54.30
60287;DHT22;46141;52.382;5.270;2023-03-11T13:51:34;21.60;53.90
60287;DHT22;46141;52.382;5.270;2023-03-11T13:54:04;21.60;53.70
60287;DHT22;46141;52.382;5.270;2023-03-11T13:56:43;21.60;53.60
60287;DHT22;46141;52.382;5.270;2023-03-11T13:59:28;21.60;54.00
60287;DHT22;46141;52.382;5.270;2023-03-11T14:01:58;21.60;54.20
60287;DHT22;46141;52.382;5.270;2023-03-11T14:04:31;21.60;53.80
60287;DHT22;46141;52.382;5.270;2023-03-11T14:06:57;21.60;54.10
60287;DHT22;46141;52.382;5.270;2023-03-11T14:09:26;21.60;54.20
60287;DHT22;46141;52.382;5.270;2023-03-11T14:11:53;21.60;53.80
60287;DHT22;46141;52.382;5.270;2023-03-11T14:14:49;21.50;54.00
60287;DHT22;46141;52.382;5.270;2023-03-11T14:17:19;21.40;52.70
60287;DHT22;46141;52.382;5.270;2023-03-11T14:20:15;21.50;53.10
60287;DHT22;46141;52.382;5.270;2023-03-11T14:22:47;21.40;53.60
60287;DHT22;46141;52.382;5.270;2023-03-11T14:27:51;21.40;53.10
60287;DHT22;46141;52.382;5.270;2023-03-11T14:30:20;21.40;53.80
60287;DHT22;46141;52.382;5.270;2023-03-11T14:32:58;21.40;53.60
60287;DHT22;46141;52.382;5.270;2023-03-11T14:35:24;21.40;53.40
60287;DHT22;46141;52.382;5.270;2023-03-11T14:37:50;21.30;53.60
60287;DHT22;46141;52.382;5.270;2023-03-11T14:40:30;21.30;52.30
60287;DHT22;46141;52.382;5.270;2023-03-11T14:43:05;21.30;52.10
60287;DHT22;46141;52.382;5.270;2023-03-11T14:45:34;21.30;51.80
60287;DHT22;46141;52.382;5.270;2023-03-11T14:48:05;21.30;51.60
60287;DHT22;46141;52.382;5.270;2023-03-11T14:50:34;21.30;51.40
60287;DHT22;46141;52.382;5.270;2023-03-11T14:53:07;21.20;51.40
60287;DHT22;46141;52.382;5.270;2023-03-11T14:55:38;21.20;51.40
60287;DHT22;46141;52.382;5.270;2023-03-11T15:01:04;21.10;51.30
60287;DHT22;46141;52.382;5.270;2023-03-11T15:03:35;21.20;51.70
60287;DHT22;46141;52.382;5.270;2023-03-11T15:06:06;21.20;52.30
60287;DHT22;46141;52.382;5.270;2023-03-11T15:08:51;21.20;51.80
60287;DHT22;46141;52.382;5.270;2023-03-11T15:11:24;21.20;51.50
60287;DHT22;46141;52.382;5.270;2023-03-11T15:13:54;21.10;51.30
60287;DHT22;46141;52.382;5.270;2023-03-11T15:16:35;21.10;51.90
60287;DHT22;46141;52.382;5.270;2023-03-11T15:19:20;21.10;51.70
60287;DHT22;46141;52.382;5.270;2023-03-11T15:21:49;21.10;51.70
60287;DHT22;46141;52.382;5.270;2023-03-11T15:24:21;21.10;51.70
60287;DHT22;46141;52.382;5.270;2023-03-11T15:27:04;21.20;54.00
60287;DHT22;46141;52.382;5.270;2023-03-11T15:29:31;21.20;54.40
60287;DHT22;46141;52.382;5.270;2023-03-11T15:31:58;21.10;54.80
60287;DHT22;46141;52.382;5.270;2023-03-11T15:34:31;21.20;55.20
60287;DHT22;46141;52.382;5.270;2023-03-11T15:37:03;21.30;55.40
60287;DHT22;46141;52.382;5.270;2023-03-11T15:42:02;21.50;55.40
60287;DHT22;46141;52.382;5.270;2023-03-11T15:47:12;21.60;55.50
60287;DHT22;46141;52.382;5.270;2023-03-11T15:49:39;21.60;55.00
60287;DHT22;46141;52.382;5.270;2023-03-11T15:52:05;21.70;55.00
60287;DHT22;46141;52.382;5.270;2023-03-11T15:54:31;21.70;54.80
60287;DHT22;46141;52.382;5.270;2023-03-11T15:56:59;21.80;54.60
60287;DHT22;46141;52.382;5.270;2023-03-11T15:59:27;21.90;54.70
60287;DHT22;46141;52.382;5.270;2023-03-11T16:01:54;22.00;55.10
60287;DHT22;46141;52.382;5.270;2023-03-11T16:04:21;22.10;54.40
60287;DHT22;46141;52.382;5.270;2023-03-11T16:06:48;22.10;54.40
60287;DHT22;46141;52.382;5.270;2023-03-11T16:09:15;22.20;54.40
60287;DHT22;46141;52.382;5.270;2023-03-11T16:11:42;22.20;54.00
60287;DHT22;46141;52.382;5.270;2023-03-11T16:14:17;22.30;54.10
60287;DHT22;46141;52.382;5.270;2023-03-11T16:16:45;22.20;54.10
60287;DHT22;46141;52.382;5.270;2023-03-11T16:19:11;22.30;54.40
60287;DHT22;46141;52.382;5.270;2023-03-11T16:21:42;22.30;54.20
60287;DHT22;46141;52.382;5.270;2023-03-11T16:24:19;22.30;54.30
60287;DHT22;46141;52.382;5.270;2023-03-11T16:26:46;22.30;54.30
60287;DHT22;46141;52.382;5.270;2023-03-11T16:29:11;22.20;54.60
60287;DHT22;46141;52.382;5.270;2023-03-11T16:31:39;22.20;54.60
60287;DHT22;46141;52.382;5.270;2023-03-11T16:34:05;22.20;54.60
60287;DHT22;46141;52.382;5.270;2023-03-11T16:36:31;22.10;54.60
60287;DHT22;46141;52.382;5.270;2023-03-11T16:38:56;22.10;54.70
60287;DHT22;46141;52.382;5.270;2023-03-11T16:41:22;22.10;54.70
60287;DHT22;46141;52.382;5.270;2023-03-11T16:43:48;22.10;54.50
60287;DHT22;46141;52.382;5.270;2023-03-11T16:46:13;22.00;54.70
60287;DHT22;46141;52.382;5.270;2023-03-11T16:48:39;21.90;55.00
60287;DHT22;46141;52.382;5.270;2023-03-11T16:51:05;22.00;54.70
60287;DHT22;46141;52.382;5.270;2023-03-11T16:53:31;21.90;55.40
60287;DHT22;46141;52.382;5.270;2023-03-11T16:55:56;21.90;54.80
60287;DHT22;46141;52.382;5.270;2023-03-11T16:58:22;21.90;54.90
60287;DHT22;46141;52.382;5.270;2023-03-11T17:00:48;21.80;55.00
60287;DHT22;46141;52.382;5.270;2023-03-11T17:03:16;21.80;54.90
60287;DHT22;46141;52.382;5.270;2023-03-11T17:05:42;21.80;55.00
60287;DHT22;46141;52.382;5.270;2023-03-11T17:08:09;21.70;55.00
60287;DHT22;46141;52.382;5.270;2023-03-11T17:10:38;21.70;55.60
60287;DHT22;46141;52.382;5.270;2023-03-11T17:13:05;21.60;55.40
60287;DHT22;46141;52.382;5.270;2023-03-11T17:15:31;21.50;54.50
60287;DHT22;46141;52.382;5.270;2023-03-11T17:17:58;21.50;53.30
60287;DHT22;46141;52.382;5.270;2023-03-11T17:20:24;21.50;54.70
60287;DHT22;46141;52.382;5.270;2023-03-11T17:22:50;21.40;56.00